sensor_id;sensor_type;location;lat;lon;timestamp;pressure;altitude;pressure_sealevel;temperature;humidity
28630;BME280;15817;42.130;24.762;2023-05-07T00:00:29;100140.16;;;17.14;98.83
28630;BME280;15817;42.130;24.762;2023-05-07T00:03:03;100130.53;;;17.07;97.78
28630;BME280;15817;42.130;24.762;2023-05-07T00:05:34;100129.50;;;17.11;98.79
28630;BME280;15817;42.130;24.762;2023-05-07T00:08:16;100132.19;;;17.11;98.47
28630;BME280;15817;42.130;24.762;2023-05-07T00:10:47;100130.38;;;17.12;98.16
28630;BME280;15817;42.130;24.762;2023-05-07T00:13:21;100128.66;;;17.09;98.13
28630;BME280;15817;42.130;24.762;2023-05-07T00:19:07;100120.59;;;17.09;97.16
28630;BME280;15817;42.130;24.762;2023-05-07T00:21:44;100125.19;;;17.06;97.66
28630;BME280;15817;42.130;24.762;2023-05-07T00:24:21;100125.03;;;17.10;98.23
28630;BME280;15817;42.130;24.762;2023-05-07T00:26:57;100114.44;;;17.06;97.68
28630;BME280;15817;42.130;24.762;2023-05-07T00:29:49;100125.97;;;17.09;97.52
28630;BME280;15817;42.130;24.762;2023-05-07T00:32:24;100125.16;;;17.07;97.93
28630;BME280;15817;42.130;24.762;2023-05-07T00:34:59;100117.16;;;17.04;98.54
28630;BME280;15817;42.130;24.762;2023-05-07T00:37:32;100116.31;;;17.02;97.94
28630;BME280;15817;42.130;24.762;2023-05-07T00:40:12;100121.69;;;17.02;98.01
28630;BME280;15817;42.130;24.762;2023-05-07T00:43:15;100123.47;;;17.03;97.37
28630;BME280;15817;42.130;24.762;2023-05-07T00:46:03;100116.66;;;16.90;96.36
28630;BME280;15817;42.130;24.762;2023-05-07T00:48:51;100121.97;;;16.93;97.20
28630;BME280;15817;42.130;24.762;2023-05-07T00:51:21;100115.81;;;16.88;97.00
28630;BME280;15817;42.130;24.762;2023-05-07T00:53:59;100117.66;;;16.86;96.71
28630;BME280;15817;42.130;24.762;2023-05-07T00:56:42;100120.34;;;16.86;95.97
28630;BME280;15817;42.130;24.762;2023-05-07T01:02:52;100125.03;;;16.79;96.57
28630;BME280;15817;42.130;24.762;2023-05-07T01:05:28;100127.66;;;16.81;96.86
28630;BME280;15817;42.130;24.762;2023-05-07T01:08:05;100124.44;;;16.68;97.25
28630;BME280;15817;42.130;24.762;2023-05-07T01:10:35;100121.78;;;16.67;97.99
28630;BME280;15817;42.130;24.762;2023-05-07T01:13:03;100126.31;;;16.64;99.25
28630;BME280;15817;42.130;24.762;2023-05-07T01:15:30;100127.34;;;16.59;99.17
28630;BME280;15817;42.130;24.762;2023-05-07T01:17:58;100116.75;;;16.53;99.05
28630;BME280;15817;42.130;24.762;2023-05-07T01:20:30;100130.16;;;16.53;99.22
28630;BME280;15817;42.130;24.762;2023-05-07T01:22:57;100121.44;;;16.45;99.10
28630;BME280;15817;42.130;24.762;2023-05-07T01:25:24;100120.72;;;16.38;99.18
28630;BME280;15817;42.130;24.762;2023-05-07T01:27:53;100128.59;;;16.44;99.99
28630;BME280;15817;42.130;24.762;2023-05-07T01:30:23;100114.25;;;16.45;99.43
28630;BME280;15817;42.130;24.762;2023-05-07T01:32:53;100123.94;;;16.51;98.61
28630;BME280;15817;42.130;24.762;2023-05-07T01:35:26;100125.00;;;16.45;98.80
28630;BME280;15817;42.130;24.762;2023-05-07T01:37:54;100121.44;;;16.45;99.13
28630;BME280;15817;42.130;24.762;2023-05-07T01:40:20;100120.72;;;16.38;99.77
28630;BME280;15817;42.130;24.762;2023-05-07T01:42:47;100116.34;;;16.34;100.00
28630;BME280;15817;42.130;24.762;2023-05-07T01:45:14;100117.19;;;16.36;100.00
28630;BME280;15817;42.130;24.762;2023-05-07T01:47:40;100117.19;;;16.36;100.00
28630;BME280;15817;42.130;24.762;2023-05-07T01:50:09;100120.72;;;16.38;100.00
28630;BME280;15817;42.130;24.762;2023-05-07T01:52:39;100109.22;;;16.33;100.00
28630;BME280;15817;42.130;24.762;2023-05-07T01:55:11;100116.44;;;16.29;100.00
28630;BME280;15817;42.130;24.762;2023-05-07T01:57:50;100117.50;;;16.24;100.00
28630;BME280;15817;42.130;24.762;2023-05-07T02:00:16;100120.94;;;16.29;100.00
28630;BME280;15817;42.130;24.762;2023-05-07T02:02:48;100128.00;;;16.33;100.00
28630;BME280;15817;42.130;24.762;2023-05-07T02:05:26;100124.50;;;16.29;99.63
28630;BME280;15817;42.130;24.762;2023-05-07T02:08:00;100113.94;;;16.23;100.00
28630;BME280;15817;42.130;24.762;2023-05-07T02:10:27;100116.53;;;16.26;100.00
28630;BME280;15817;42.130;24.762;2023-05-07T02:12:55;100112.09;;;16.25;100.00
28630;BME280;15817;42.130;24.762;2023-05-07T02:15:21;100114.78;;;16.25;100.00
28630;BME280;15817;42.130;24.762;2023-05-07T02:18:00;100113.91;;;16.25;100.00
28630;BME280;15817;42.130;24.762;2023-05-07T02:20:29;100117.53;;;16.22;100.00
28630;BME280;15817;42.130;24.762;2023-05-07T02:22:55;100110.47;;;16.18;100.00
28630;BME280;15817;42.130;24.762;2023-05-07T02:25:24;100117.63;;;16.18;100.00
28630;BME280;15817;42.130;24.762;2023-05-07T02:27:50;100113.28;;;16.14;100.00
28630;BME280;15817;42.130;24.762;2023-05-07T02:30:17;100114.25;;;16.10;100.00
28630;BME280;15817;42.130;24.762;2023-05-07T02:32:44;100117.94;;;16.06;100.00
28630;BME280;15817;42.130;24.762;2023-05-07T02:35:30;100105.59;;;15.99;100.00
28630;BME280;15817;42.130;24.762;2023-05-07T02:37:59;100101.19;;;15.96;100.00
28630;BME280;15817;42.130;24.762;2023-05-07T02:40:25;100117.22;;;15.99;100.00
28630;BME280;15817;42.130;24.762;2023-05-07T02:42:51;100115.69;;;15.87;100.00
28630;BME280;15817;42.130;24.762;2023-05-07T02:45:17;100115.66;;;15.89;100.00
28630;BME280;15817;42.130;24.762;2023-05-07T02:47:44;100113.06;;;15.84;100.00
28630;BME280;15817;42.130;24.762;2023-05-07T02:50:14;100108.56;;;15.86;100.00
28630;BME280;15817;42.130;24.762;2023-05-07T02:52:40;100116.63;;;15.86;100.00
28630;BME280;15817;42.130;24.762;2023-05-07T02:55:08;100114.78;;;15.88;100.00
28630;BME280;15817;42.130;24.762;2023-05-07T02:57:34;100115.69;;;15.87;100.00
28630;BME280;15817;42.130;24.762;2023-05-07T03:00:10;100112.06;;;15.90;100.00
28630;BME280;15817;42.130;24.762;2023-05-07T03:02:39;100089.78;;;15.86;100.00
28630;BME280;15817;42.130;24.762;2023-05-07T03:05:11;100101.25;;;15.93;100.00
28630;BME280;15817;42.130;24.762;2023-05-07T03:07:38;100097.81;;;15.88;100.00
28630;BME280;15817;42.130;24.762;2023-05-07T03:10:04;100096.22;;;15.79;100.00
28630;BME280;15817;42.130;24.762;2023-05-07T03:12:51;100096.22;;;15.79;100.00
28630;BME280;15817;42.130;24.762;2023-05-07T03:15:17;100098.91;;;15.79;100.00
28630;BME280;15817;42.130;24.762;2023-05-07T03:18:15;100088.97;;;15.83;100.00
28630;BME280;15817;42.130;24.762;2023-05-07T03:20:41;100103.38;;;15.80;100.00
28630;BME280;15817;42.130;24.762;2023-05-07T03:23:10;100106.91;;;15.81;100.00
28630;BME280;15817;42.130;24.762;2023-05-07T03:25:41;100104.38;;;15.75;100.00
28630;BME280;15817;42.130;24.762;2023-05-07T03:28:07;100107.06;;;15.75;100.00
28630;BME280;15817;42.130;24.762;2023-05-07T03:30:39;100105.22;;;15.77;100.00
28630;BME280;15817;42.130;24.762;2023-05-07T03:33:08;100108.91;;;15.71;100.00
28630;BME280;15817;42.130;24.762;2023-05-07T03:35:41;100104.53;;;15.69;100.00
28630;BME280;15817;42.130;24.762;2023-05-07T03:38:09;100106.25;;;15.70;100.00
28630;BME280;15817;42.130;24.762;2023-05-07T03:40:37;100103.75;;;15.62;100.00
28630;BME280;15817;42.130;24.762;2023-05-07T03:43:04;100102.91;;;15.60;100.00
28630;BME280;15817;42.130;24.762;2023-05-07T03:45:42;100099.44;;;15.56;100.00
28630;BME280;15817;42.130;24.762;2023-05-07T03:48:16;100109.19;;;15.59;100.00
28630;BME280;15817;42.130;24.762;2023-05-07T03:50:45;100104.84;;;15.52;100.00
28630;BME280;15817;42.130;24.762;2023-05-07T03:53:12;100120.91;;;15.53;100.00
28630;BME280;15817;42.130;24.762;2023-05-07T03:55:44;100115.63;;;15.50;100.00
28630;BME280;15817;42.130;24.762;2023-05-07T03:58:13;100120.13;;;15.48;100.00
28630;BME280;15817;42.130;24.762;2023-05-07T04:00:45;100121.84;;;15.52;100.00
28630;BME280;15817;42.130;24.762;2023-05-07T04:03:19;100111.38;;;15.40;100.00
28630;BME280;15817;42.130;24.762;2023-05-07T04:05:45;100118.47;;;15.43;100.00
28630;BME280;15817;42.130;24.762;2023-05-07T04:08:17;100124.69;;;15.45;100.00
28630;BME280;15817;42.130;24.762;2023-05-07T04:10:54;100121.88;;;15.49;100.00
28630;BME280;15817;42.130;24.762;2023-05-07T04:13:24;100116.66;;;15.45;100.00
28630;BME280;15817;42.130;24.762;2023-05-07T04:16:01;100118.50;;;15.41;100.00
28630;BME280;15817;42.130;24.762;2023-05-07T04:18:28;100109.56;;;15.41;100.00
28630;BME280;15817;42.130;24.762;2023-05-07T04:21:43;100114.03;;;15.42;100.00
28630;BME280;15817;42.130;24.762;2023-05-07T04:24:33;100114.06;;;15.40;100.00
28630;BME280;15817;42.130;24.762;2023-05-07T04:27:13;100123.84;;;15.43;100.00
28630;BME280;15817;42.130;24.762;2023-05-07T04:29:39;100117.63;;;15.41;100.00
28630;BME280;15817;42.130;24.762;2023-05-07T04:32:13;100107.78;;;15.41;100.00
28630;BME280;15817;42.130;24.762;2023-05-07T04:34:41;100118.41;;;15.46;100.00
28630;BME280;15817;42.130;24.762;2023-05-07T04:37:12;100116.75;;;15.40;100.00
28630;BME280;15817;42.130;24.762;2023-05-07T04:39:39;100126.41;;;15.47;100.00
28630;BME280;15817;42.130;24.762;2023-05-07T04:42:25;100122.88;;;15.45;100.00
28630;BME280;15817;42.130;24.762;2023-05-07T04:44:55;100121.09;;;15.46;100.00
28630;BME280;15817;42.130;24.762;2023-05-07T04:47:22;100122.94;;;15.42;100.00
28630;BME280;15817;42.130;24.762;2023-05-07T04:49:49;100131.75;;;15.47;100.00
28630;BME280;15817;42.130;24.762;2023-05-07T04:52:15;100116.69;;;15.42;100.00
28630;BME280;15817;42.130;24.762;2023-05-07T04:54:49;100120.22;;;15.45;100.00
28630;BME280;15817;42.130;24.762;2023-05-07T04:57:16;100113.13;;;15.43;100.00
28630;BME280;15817;42.130;24.762;2023-05-07T04:59:48;100127.22;;;15.51;100.00
28630;BME280;15817;42.130;24.762;2023-05-07T05:02:14;100134.31;;;15.53;100.00
28630;BME280;15817;42.130;24.762;2023-05-07T05:04:45;100129.13;;;15.46;100.00
28630;BME280;15817;42.130;24.762;2023-05-07T05:07:30;100136.22;;;15.47;100.00
28630;BME280;15817;42.130;24.762;2023-05-07T05:10:08;100124.53;;;15.51;100.00
28630;BME280;15817;42.130;24.762;2023-05-07T05:12:37;100134.31;;;15.55;100.00
28630;BME280;15817;42.130;24.762;2023-05-07T05:15:12;100136.06;;;15.57;100.00
28630;BME280;15817;42.130;24.762;2023-05-07T05:17:39;100134.31;;;15.55;100.00
28630;BME280;15817;42.130;24.762;2023-05-07T05:20:11;100134.31;;;15.55;100.00
28630;BME280;15817;42.130;24.762;2023-05-07T05:23:07;100133.28;;;15.61;100.00
28630;BME280;15817;42.130;24.762;2023-05-07T05:25:33;100143.09;;;15.62;100.00
28630;BME280;15817;42.130;24.762;2023-05-07T05:28:10;100141.31;;;15.62;100.00
28630;BME280;15817;42.130;24.762;2023-05-07T05:30:36;100139.50;;;15.63;100.00
28630;BME280;15817;42.130;24.762;2023-05-07T05:33:02;100142.13;;;15.66;100.00
28630;BME280;15817;42.130;24.762;2023-05-07T05:35:38;100157.16;;;15.73;100.00
28630;BME280;15817;42.130;24.762;2023-05-07T05:38:29;100147.47;;;15.67;100.00
28630;BME280;15817;42.130;24.762;2023-05-07T05:40:59;100142.06;;;15.69;100.00
28630;BME280;15817;42.130;24.762;2023-05-07T05:43:31;100156.22;;;15.75;100.00
28630;BME280;15817;42.130;24.762;2023-05-07T05:46:06;100145.47;;;15.77;100.00
28630;BME280;15817;42.130;24.762;2023-05-07T05:48:43;100154.38;;;15.77;100.00
28630;BME280;15817;42.130;24.762;2023-05-07T05:51:12;100160.53;;;15.81;100.00
28630;BME280;15817;42.130;24.762;2023-05-07T05:53:43;100158.91;;;15.75;100.00
28630;BME280;15817;42.130;24.762;2023-05-07T05:56:33;100171.34;;;15.79;100.00
28630;BME280;15817;42.130;24.762;2023-05-07T06:06:12;100161.44;;;15.81;98.39
28630;BME280;15817;42.130;24.762;2023-05-07T06:11:45;100163.94;;;15.89;98.29
28630;BME280;15817;42.130;24.762;2023-05-07T06:14:20;100172.91;;;15.88;98.51
28630;BME280;15817;42.130;24.762;2023-05-07T06:16:50;100166.59;;;15.90;98.56
28630;BME280;15817;42.130;24.762;2023-05-07T06:19:33;100162.84;;;15.98;97.83
28630;BME280;15817;42.130;24.762;2023-05-07T06:25:12;100162.75;;;16.02;97.53
28630;BME280;15817;42.130;24.762;2023-05-07T06:28:00;100164.59;;;16.00;94.88
28630;BME280;15817;42.130;24.762;2023-05-07T06:30:48;100154.69;;;16.04;96.03
28630;BME280;15817;42.130;24.762;2023-05-07T06:36:43;100145.63;;;16.08;95.38
28630;BME280;15817;42.130;24.762;2023-05-07T06:39:42;100153.56;;;16.12;95.51
28630;BME280;15817;42.130;24.762;2023-05-07T06:43:08;100151.75;;;16.14;95.02
28630;BME280;15817;42.130;24.762;2023-05-07T06:45:57;100142.63;;;16.20;96.25
28630;BME280;15817;42.130;24.762;2023-05-07T06:48:36;100159.44;;;16.28;96.27
28630;BME280;15817;42.130;24.762;2023-05-07T06:51:46;100158.38;;;16.35;94.79
28630;BME280;15817;42.130;24.762;2023-05-07T06:57:24;100154.63;;;16.41;94.29
28630;BME280;15817;42.130;24.762;2023-05-07T06:59:53;100159.91;;;16.45;94.07
28630;BME280;15817;42.130;24.762;2023-05-07T07:16:43;100155.03;;;16.61;93.25
28630;BME280;15817;42.130;24.762;2023-05-07T07:19:26;100159.34;;;16.68;92.73
28630;BME280;15817;42.130;24.762;2023-05-07T07:22:03;100164.47;;;16.77;92.08
28630;BME280;15817;42.130;24.762;2023-05-07T07:24:40;100163.50;;;16.80;91.40
28630;BME280;15817;42.130;24.762;2023-05-07T07:27:17;100165.25;;;16.82;91.59
28630;BME280;15817;42.130;24.762;2023-05-07T07:30:11;100159.88;;;16.82;91.43
28630;BME280;15817;42.130;24.762;2023-05-07T07:32:40;100160.50;;;16.92;91.11
28630;BME280;15817;42.130;24.762;2023-05-07T07:35:09;100162.97;;;16.99;91.17
28630;BME280;15817;42.130;24.762;2023-05-07T07:37:55;100169.97;;;17.07;89.03
28630;BME280;15817;42.130;24.762;2023-05-07T07:40:35;100162.78;;;17.07;89.13
28630;BME280;15817;42.130;24.762;2023-05-07T07:43:01;100158.97;;;17.14;90.33
28630;BME280;15817;42.130;24.762;2023-05-07T07:45:34;100161.19;;;17.31;90.05
28630;BME280;15817;42.130;24.762;2023-05-07T07:48:04;100168.72;;;17.49;89.52
28630;BME280;15817;42.130;24.762;2023-05-07T07:50:34;100173.41;;;17.73;88.72
28630;BME280;15817;42.130;24.762;2023-05-07T07:53:00;100162.72;;;18.00;87.52
28630;BME280;15817;42.130;24.762;2023-05-07T07:55:26;100161.00;;;18.25;85.38
28630;BME280;15817;42.130;24.762;2023-05-07T08:01:49;100166.28;;;18.83;80.02
28630;BME280;15817;42.130;24.762;2023-05-07T08:04:26;100175.94;;;19.14;79.12
28630;BME280;15817;42.130;24.762;2023-05-07T08:09:51;100173.88;;;19.71;75.54
28630;BME280;15817;42.130;24.762;2023-05-07T08:12:24;100166.69;;;19.93;74.47
28630;BME280;15817;42.130;24.762;2023-05-07T08:19:29;100167.38;;;20.65;71.55
28630;BME280;15817;42.130;24.762;2023-05-07T08:22:41;100171.69;;;20.89;67.21
28630;BME280;15817;42.130;24.762;2023-05-07T08:25:22;100147.69;;;21.02;65.86
28630;BME280;15817;42.130;24.762;2023-05-07T08:31:37;100146.97;;;21.58;63.57
28630;BME280;15817;42.130;24.762;2023-05-07T08:38:06;100136.41;;;22.10;61.20
28630;BME280;15817;42.130;24.762;2023-05-07T08:40:58;100152.09;;;22.39;60.05
28630;BME280;15817;42.130;24.762;2023-05-07T08:44:06;100138.44;;;22.59;59.35
28630;BME280;15817;42.130;24.762;2023-05-07T08:51:15;100144.31;;;23.03;57.36
28630;BME280;15817;42.130;24.762;2023-05-07T08:53:50;100143.66;;;23.16;55.45
28630;BME280;15817;42.130;24.762;2023-05-07T08:56:28;100128.63;;;23.26;55.30
28630;BME280;15817;42.130;24.762;2023-05-07T08:59:03;100142.16;;;23.43;54.86
28630;BME280;15817;42.130;24.762;2023-05-07T09:02:10;100133.47;;;23.54;50.40
28630;BME280;15817;42.130;24.762;2023-05-07T09:04:40;100123.31;;;23.57;50.84
28630;BME280;15817;42.130;24.762;2023-05-07T09:07:30;100127.72;;;23.75;51.17
28630;BME280;15817;42.130;24.762;2023-05-07T09:10:03;100128.34;;;23.96;48.17
28630;BME280;15817;42.130;24.762;2023-05-07T09:12:31;100132.97;;;23.78;46.68
28630;BME280;15817;42.130;24.762;2023-05-07T09:15:10;100126.69;;;24.09;47.81
28630;BME280;15817;42.130;24.762;2023-05-07T09:17:39;100119.69;;;24.21;47.64
28630;BME280;15817;42.130;24.762;2023-05-07T09:20:20;100119.91;;;24.48;42.27
28630;BME280;15817;42.130;24.762;2023-05-07T09:23:12;100120.16;;;24.59;39.61
28630;BME280;15817;42.130;24.762;2023-05-07T09:26:03;100110.25;;;24.58;40.63
28630;BME280;15817;42.130;24.762;2023-05-07T09:28:42;100117.72;;;24.84;42.59
28630;BME280;15817;42.130;24.762;2023-05-07T09:31:11;100104.63;;;24.91;43.36
28630;BME280;15817;42.130;24.762;2023-05-07T09:34:01;100108.00;;;25.10;43.54
28630;BME280;15817;42.130;24.762;2023-05-07T09:36:34;100102.09;;;25.32;42.53
28630;BME280;15817;42.130;24.762;2023-05-07T09:39:17;100113.28;;;25.56;41.50
28630;BME280;15817;42.130;24.762;2023-05-07T09:41:46;100112.91;;;25.62;41.23
28630;BME280;15817;42.130;24.762;2023-05-07T09:44:25;100101.19;;;25.32;41.23
28630;BME280;15817;42.130;24.762;2023-05-07T09:47:19;100090.13;;;25.49;42.21
28630;BME280;15817;42.130;24.762;2023-05-07T09:49:56;100101.34;;;25.73;42.06
28630;BME280;15817;42.130;24.762;2023-05-07T09:52:31;100088.09;;;25.67;41.63
28630;BME280;15817;42.130;24.762;2023-05-07T09:55:04;100099.06;;;25.79;41.18
28630;BME280;15817;42.130;24.762;2023-05-07T09:57:34;100079.13;;;25.79;41.80
28630;BME280;15817;42.130;24.762;2023-05-07T10:00:07;100084.88;;;25.60;41.83
28630;BME280;15817;42.130;24.762;2023-05-07T10:02:52;100071.13;;;25.76;42.02
28630;BME280;15817;42.130;24.762;2023-05-07T10:05:27;100079.88;;;25.95;41.47
28630;BME280;15817;42.130;24.762;2023-05-07T10:07:59;100072.69;;;25.94;40.53
28630;BME280;15817;42.130;24.762;2023-05-07T10:10:29;100072.78;;;25.78;40.55
28630;BME280;15817;42.130;24.762;2023-05-07T10:12:57;100074.72;;;25.90;40.87
28630;BME280;15817;42.130;24.762;2023-05-07T10:15:32;100080.78;;;26.08;39.85
28630;BME280;15817;42.130;24.762;2023-05-07T10:18:02;100070.91;;;26.20;40.03
28630;BME280;15817;42.130;24.762;2023-05-07T10:20:33;100066.72;;;26.02;40.10
28630;BME280;15817;42.130;24.762;2023-05-07T10:23:03;100061.38;;;26.27;40.67
28630;BME280;15817;42.130;24.762;2023-05-07T10:25:35;100064.47;;;26.35;40.45
28630;BME280;15817;42.130;24.762;2023-05-07T10:28:17;100057.09;;;26.23;40.33
28630;BME280;15817;42.130;24.762;2023-05-07T10:33:48;100057.84;;;26.39;39.58
28630;BME280;15817;42.130;24.762;2023-05-07T10:36:25;100059.34;;;26.43;38.93
28630;BME280;15817;42.130;24.762;2023-05-07T10:38:55;100050.97;;;26.46;38.44
28630;BME280;15817;42.130;24.762;2023-05-07T10:41:29;100040.31;;;26.68;38.28
28630;BME280;15817;42.130;24.762;2023-05-07T10:43:55;100037.38;;;26.72;37.57
28630;BME280;15817;42.130;24.762;2023-05-07T10:46:27;100041.66;;;26.76;37.84
28630;BME280;15817;42.130;24.762;2023-05-07T10:58:32;100021.75;;;26.61;37.06
28630;BME280;15817;42.130;24.762;2023-05-07T11:01:55;100016.84;;;26.53;37.34
28630;BME280;15817;42.130;24.762;2023-05-07T11:04:38;100027.13;;;26.09;37.66
28630;BME280;15817;42.130;24.762;2023-05-07T11:07:30;100015.84;;;26.15;37.96
28630;BME280;15817;42.130;24.762;2023-05-07T11:11:00;100014.53;;;26.20;37.21
28630;BME280;15817;42.130;24.762;2023-05-07T11:14:07;100013.97;;;26.29;37.38
28630;BME280;15817;42.130;24.762;2023-05-07T11:17:02;100013.31;;;26.39;36.71
28630;BME280;15817;42.130;24.762;2023-05-07T11:19:53;100017.81;;;26.52;37.20
28630;BME280;15817;42.130;24.762;2023-05-07T11:22:49;100015.09;;;26.52;36.61
28630;BME280;15817;42.130;24.762;2023-05-07T11:25:46;100003.94;;;26.55;36.61
28630;BME280;15817;42.130;24.762;2023-05-07T11:28:37;100011.59;;;26.50;36.13
28630;BME280;15817;42.130;24.762;2023-05-07T11:31:58;100007.00;;;26.38;36.78
28630;BME280;15817;42.130;24.762;2023-05-07T11:34:55;99997.06;;;26.37;36.83
28630;BME280;15817;42.130;24.762;2023-05-07T11:37:22;99988.00;;;26.37;36.00
28630;BME280;15817;42.130;24.762;2023-05-07T11:40:11;99994.56;;;26.47;36.24
28630;BME280;15817;42.130;24.762;2023-05-07T11:42:56;100006.03;;;26.25;36.60
28630;BME280;15817;42.130;24.762;2023-05-07T11:48:28;99995.59;;;25.08;38.59
28630;BME280;15817;42.130;24.762;2023-05-07T11:51:42;100000.69;;;25.84;38.11
28630;BME280;15817;42.130;24.762;2023-05-07T11:54:15;99993.25;;;25.86;38.49
28630;BME280;15817;42.130;24.762;2023-05-07T11:56:41;99976.78;;;25.87;37.66
28630;BME280;15817;42.130;24.762;2023-05-07T11:59:28;99986.81;;;26.14;37.90
28630;BME280;15817;42.130;24.762;2023-05-07T12:02:27;99977.28;;;26.33;38.12
28630;BME280;15817;42.130;24.762;2023-05-07T12:05:04;99983.66;;;26.20;37.95
28630;BME280;15817;42.130;24.762;2023-05-07T12:07:30;99988.09;;;26.35;38.00
28630;BME280;15817;42.130;24.762;2023-05-07T12:10:11;99976.91;;;26.52;37.76
28630;BME280;15817;42.130;24.762;2023-05-07T12:12:39;99978.88;;;26.63;38.05
28630;BME280;15817;42.130;24.762;2023-05-07T12:15:18;99971.97;;;26.57;37.69
28630;BME280;15817;42.130;24.762;2023-05-07T12:17:48;99972.88;;;26.71;36.63
28630;BME280;15817;42.130;24.762;2023-05-07T12:20:23;99972.31;;;26.78;37.06
28630;BME280;15817;42.130;24.762;2023-05-07T12:22:57;99974.41;;;26.75;37.23
28630;BME280;15817;42.130;24.762;2023-05-07T12:26:01;99969.16;;;26.19;37.90
28630;BME280;15817;42.130;24.762;2023-05-07T12:28:36;99958.63;;;26.01;37.36
28630;BME280;15817;42.130;24.762;2023-05-07T12:31:03;99959.22;;;26.06;37.36
28630;BME280;15817;42.130;24.762;2023-05-07T12:33:29;99971.03;;;26.19;37.55
28630;BME280;15817;42.130;24.762;2023-05-07T12:43:49;99937.44;;;26.18;38.14
28630;BME280;15817;42.130;24.762;2023-05-07T12:46:26;99943.53;;;26.22;38.20
28630;BME280;15817;42.130;24.762;2023-05-07T12:49:00;99952.44;;;26.38;38.00
28630;BME280;15817;42.130;24.762;2023-05-07T12:51:35;99936.50;;;26.45;37.71
28630;BME280;15817;42.130;24.762;2023-05-07T12:54:01;99924.19;;;26.39;38.37
28630;BME280;15817;42.130;24.762;2023-05-07T12:56:27;99941.06;;;26.31;37.57
28630;BME280;15817;42.130;24.762;2023-05-07T12:59:00;99933.13;;;26.41;38.47
28630;BME280;15817;42.130;24.762;2023-05-07T13:01:43;99932.41;;;26.25;37.30
28630;BME280;15817;42.130;24.762;2023-05-07T13:04:41;99929.59;;;26.26;37.68
28630;BME280;15817;42.130;24.762;2023-05-07T13:10:41;99923.63;;;26.34;38.29
28630;BME280;15817;42.130;24.762;2023-05-07T13:13:23;99919.91;;;26.35;37.28
28630;BME280;15817;42.130;24.762;2023-05-07T13:19:01;99913.53;;;26.22;37.42
28630;BME280;15817;42.130;24.762;2023-05-07T13:21:27;99918.59;;;26.28;38.02
28630;BME280;15817;42.130;24.762;2023-05-07T13:24:00;99917.22;;;26.21;36.91
28630;BME280;15817;42.130;24.762;2023-05-07T13:26:38;99910.53;;;26.00;36.93
28630;BME280;15817;42.130;24.762;2023-05-07T13:29:15;99903.03;;;26.03;36.88
28630;BME280;15817;42.130;24.762;2023-05-07T13:31:59;99920.22;;;25.91;36.85
28630;BME280;15817;42.130;24.762;2023-05-07T13:38:08;99903.88;;;25.91;37.06
28630;BME280;15817;42.130;24.762;2023-05-07T13:40:39;99907.19;;;25.96;36.87
28630;BME280;15817;42.130;24.762;2023-05-07T13:43:10;99904.31;;;25.97;36.73
28630;BME280;15817;42.130;24.762;2023-05-07T13:45:49;99896.00;;;25.86;36.69
28630;BME280;15817;42.130;24.762;2023-05-07T13:48:17;99907.00;;;25.85;36.44
28630;BME280;15817;42.130;24.762;2023-05-07T13:51:14;99901.25;;;25.63;36.79
28630;BME280;15817;42.130;24.762;2023-05-07T13:54:00;99889.88;;;25.56;36.84
28630;BME280;15817;42.130;24.762;2023-05-07T13:56:46;99891.16;;;25.65;36.88
28630;BME280;15817;42.130;24.762;2023-05-07T13:59:19;99892.22;;;25.62;36.70
28630;BME280;15817;42.130;24.762;2023-05-07T14:01:48;99888.22;;;25.68;36.35
28630;BME280;15817;42.130;24.762;2023-05-07T14:04:38;99883.94;;;25.64;36.88
28630;BME280;15817;42.130;24.762;2023-05-07T14:08:09;99891.63;;;25.57;36.89
28630;BME280;15817;42.130;24.762;2023-05-07T14:10:37;99886.28;;;25.55;37.06
28630;BME280;15817;42.130;24.762;2023-05-07T14:13:47;99893.34;;;25.45;36.10
28630;BME280;15817;42.130;24.762;2023-05-07T14:17:17;99892.00;;;25.38;36.52
28630;BME280;15817;42.130;24.762;2023-05-07T14:20:08;99887.56;;;25.23;36.63
28630;BME280;15817;42.130;24.762;2023-05-07T14:22:44;99884.78;;;25.10;36.19
28630;BME280;15817;42.130;24.762;2023-05-07T14:25:29;99894.97;;;25.21;37.09
28630;BME280;15817;42.130;24.762;2023-05-07T14:28:18;99886.91;;;25.05;36.96
28630;BME280;15817;42.130;24.762;2023-05-07T14:30:49;99895.94;;;25.06;36.96
28630;BME280;15817;42.130;24.762;2023-05-07T14:33:28;99888.69;;;24.78;37.15
28630;BME280;15817;42.130;24.762;2023-05-07T14:35:53;99880.69;;;24.75;37.42
28630;BME280;15817;42.130;24.762;2023-05-07T14:38:23;99880.88;;;24.72;38.10
28630;BME280;15817;42.130;24.762;2023-05-07T14:41:10;99892.75;;;24.71;38.23
28630;BME280;15817;42.130;24.762;2023-05-07T14:43:36;99891.09;;;24.54;37.59
28630;BME280;15817;42.130;24.762;2023-05-07T14:46:02;99896.22;;;24.30;37.63
28630;BME280;15817;42.130;24.762;2023-05-07T14:48:44;99888.50;;;24.08;37.66
28630;BME280;15817;42.130;24.762;2023-05-07T14:51:16;99883.94;;;24.09;38.02
28630;BME280;15817;42.130;24.762;2023-05-07T14:53:43;99892.41;;;24.18;38.56
28630;BME280;15817;42.130;24.762;2023-05-07T14:56:15;99888.72;;;24.19;39.19
28630;BME280;15817;42.130;24.762;2023-05-07T14:58:52;99885.38;;;24.14;38.77
28630;BME280;15817;42.130;24.762;2023-05-07T15:02:06;99893.13;;;24.22;39.20
28630;BME280;15817;42.130;24.762;2023-05-07T15:10:02;99888.75;;;24.04;39.28